Time;durP1;ratioP1;P1;durP2;ratioP2;P2;SDS_P1;SDS_P2;PMS_P1;PMS_P2;Temp;Humidity;BMP_temperature;BMP_pressure;BME280_temperature;BME280_humidity;BME280_pressure;Samples;Min_cycle;Max_cycle;Signal;HPM_P1;HPM_P2
2021/04/12 00:00:47;;;;;;;9.50;8.40;;;5.10;99.90;;;;;;4930372;29;20202;-66
2021/04/12 00:03:19;;;;;;;9.63;8.43;;;5.10;99.90;;;;;;4930792;29;20245;-65
2021/04/12 00:05:51;;;;;;;9.27;7.10;;;5.00;99.90;;;;;;4929133;29;20214;-67
2021/04/12 00:08:25;;;;;;;8.15;7.25;;;4.90;99.90;;;;;;4930307;29;20740;-65
2021/04/12 00:10:59;;;;;;;8.27;6.68;;;4.80;99.90;;;;;;4932280;29;20216;-66
2021/04/12 00:13:35;;;;;;;8.98;7.20;;;4.70;99.90;;;;;;4934227;29;20252;-65
2021/04/12 00:16:07;;;;;;;8.13;6.95;;;4.70;99.90;;;;;;4933776;29;20239;-65
2021/04/12 00:18:41;;;;;;;7.80;6.43;;;4.70;99.90;;;;;;4934255;29;20305;-65
2021/04/12 00:21:12;;;;;;;5.32;4.82;;;4.60;99.90;;;;;;4934051;29;20687;-64
2021/04/12 00:23:45;;;;;;;6.95;5.90;;;4.50;99.90;;;;;;4934556;29;20292;-65
2021/04/12 00:26:17;;;;;;;7.40;6.60;;;4.50;99.90;;;;;;4933430;29;20205;-65
2021/04/12 00:28:46;;;;;;;7.43;5.93;;;4.50;99.90;;;;;;4933844;29;20218;-64
2021/04/12 00:31:17;;;;;;;7.03;5.90;;;4.40;99.90;;;;;;4933763;29;20216;-65
2021/04/12 00:33:49;;;;;;;7.32;6.25;;;4.30;99.90;;;;;;4934172;29;20233;-64
2021/04/12 00:36:22;;;;;;;6.82;6.15;;;4.30;99.90;;;;;;4933569;29;20295;-65
2021/04/12 00:38:56;;;;;;;7.40;6.70;;;4.30;99.90;;;;;;4933812;29;20260;-64
2021/04/12 00:41:45;;;;;;;7.75;5.88;;;4.20;99.90;;;;;;4934097;29;20205;-65
2021/04/12 00:44:23;;;;;;;5.45;4.50;;;4.10;99.90;;;;;;4930931;29;22093;-65
2021/04/12 00:46:57;;;;;;;6.63;5.88;;;4.00;99.90;;;;;;4933935;29;20210;-65
2021/04/12 00:49:43;;;;;;;6.00;5.50;;;4.00;99.90;;;;;;4933841;29;20991;-66
2021/04/12 00:52:55;;;;;;;6.63;5.63;;;4.00;99.90;;;;;;4934002;29;20296;-65
2021/04/12 00:55:39;;;;;;;7.13;6.45;;;3.90;99.90;;;;;;4933086;29;20690;-65
2021/04/12 00:58:33;;;;;;;8.35;6.22;;;3.90;99.90;;;;;;4933091;29;20702;-65
2021/04/12 01:01:18;;;;;;;6.97;6.28;;;3.90;99.90;;;;;;4914715;29;20211;-66
2021/04/12 01:04:14;;;;;;;8.13;6.22;;;3.90;99.90;;;;;;4914508;29;20282;-65
2021/04/12 01:07:04;;;;;;;7.78;6.50;;;3.90;99.90;;;;;;4914067;29;20298;-66
2021/04/12 01:10:04;;;;;;;8.35;6.65;;;3.90;99.90;;;;;;4933176;29;20212;-65
2021/04/12 01:12:59;;;;;;;6.93;6.00;;;3.80;99.90;;;;;;4932914;29;20272;-65
2021/04/12 01:16:02;;;;;;;8.73;6.97;;;3.80;99.90;;;;;;4932236;29;20206;-65
2021/04/12 01:18:51;;;;;;;7.28;6.35;;;3.80;99.90;;;;;;4933231;29;20217;-65
2021/04/12 01:21:57;;;;;;;8.80;6.75;;;3.80;99.90;;;;;;4930302;29;20210;-64
2021/04/12 01:24:55;;;;;;;8.02;6.45;;;3.70;99.90;;;;;;4932684;29;20601;-66
2021/04/12 01:28:08;;;;;;;7.47;6.32;;;3.70;99.90;;;;;;4933098;29;20202;-65
2021/04/12 01:30:58;;;;;;;7.28;6.15;;;3.70;99.90;;;;;;4932827;29;20581;-66
2021/04/12 01:33:57;;;;;;;8.85;6.57;;;3.60;99.90;;;;;;4933015;29;20241;-65
2021/04/12 01:36:41;;;;;;;8.80;6.40;;;3.60;99.90;;;;;;4932203;29;20209;-65
2021/04/12 01:39:13;;;;;;;7.28;6.50;;;3.50;99.90;;;;;;4932860;29;20217;-65
2021/04/12 01:41:59;;;;;;;7.18;6.32;;;3.50;99.90;;;;;;4932525;29;20202;-66
2021/04/12 01:44:40;;;;;;;8.23;6.55;;;3.50;99.90;;;;;;4932120;29;20206;-66
2021/04/12 01:47:38;;;;;;;7.50;6.03;;;3.40;99.90;;;;;;4932761;29;20216;-64
2021/04/12 01:50:19;;;;;;;7.13;6.40;;;3.30;99.90;;;;;;4932922;29;20233;-65
2021/04/12 01:53:11;;;;;;;6.50;5.65;;;3.20;99.90;;;;;;4932370;29;20212;-65
2021/04/12 01:55:55;;;;;;;7.72;6.60;;;3.00;99.90;;;;;;4931202;29;20206;-64
2021/04/12 01:58:36;;;;;;;8.18;6.00;;;3.10;99.90;;;;;;4932013;29;20201;-65
2021/04/12 02:01:11;;;;;;;9.05;6.75;;;3.20;99.90;;;;;;4932346;29;20255;-65
2021/04/12 02:04:05;;;;;;;6.82;6.18;;;3.20;99.90;;;;;;4932229;29;20201;-65
2021/04/12 02:06:43;;;;;;;5.82;5.18;;;3.20;99.90;;;;;;4931492;29;20214;-65
2021/04/12 02:09:30;;;;;;;7.97;6.82;;;3.10;99.90;;;;;;4932021;29;20212;-65
2021/04/12 02:12:10;;;;;;;7.40;6.47;;;3.10;99.90;;;;;;4932088;29;20222;-64
2021/04/12 02:15:02;;;;;;;9.00;6.57;;;3.20;99.90;;;;;;4930792;29;20229;-65
2021/04/12 02:17:43;;;;;;;8.90;7.00;;;3.20;99.90;;;;;;4932165;29;20205;-64
2021/04/12 02:20:17;;;;;;;6.90;6.20;;;3.20;99.90;;;;;;4932260;29;20297;-65
2021/04/12 02:23:15;;;;;;;7.93;6.80;;;3.20;99.90;;;;;;4931874;29;20231;-64
2021/04/12 02:26:02;;;;;;;7.35;6.18;;;3.20;99.90;;;;;;4912118;29;20217;-65
2021/04/12 02:28:43;;;;;;;9.82;8.13;;;3.20;99.90;;;;;;4912762;29;20673;-65
2021/04/12 02:31:21;;;;;;;10.50;7.70;;;3.10;99.90;;;;;;4912862;29;20309;-64
2021/04/12 02:33:58;;;;;;;8.88;6.50;;;3.10;99.90;;;;;;4911598;29;20234;-65
2021/04/12 02:36:37;;;;;;;10.27;7.88;;;3.20;99.90;;;;;;4912689;29;20304;-65
2021/04/12 02:39:13;;;;;;;11.80;7.30;;;3.20;99.90;;;;;;4930985;29;20206;-65
2021/04/12 02:41:57;;;;;;;9.52;7.70;;;3.10;99.90;;;;;;4931572;29;20206;-64
2021/04/12 02:45:02;;;;;;;9.07;7.65;;;3.10;99.90;;;;;;4931010;29;20209;-65
2021/04/12 02:47:50;;;;;;;9.45;8.02;;;3.10;99.90;;;;;;4901736;29;20721;-64
2021/04/12 02:50:29;;;;;;;10.25;8.55;;;3.10;99.90;;;;;;4931497;29;20344;-65
2021/04/12 02:53:09;;;;;;;14.45;8.98;;;3.20;99.90;;;;;;4931100;29;20545;-65
2021/04/12 02:55:51;;;;;;;11.55;8.25;;;3.20;99.90;;;;;;4931565;29;20687;-65
2021/04/12 02:58:59;;;;;;;10.77;8.75;;;3.20;99.90;;;;;;4930883;29;20214;-64
2021/04/12 03:01:43;;;;;;;11.55;8.80;;;3.20;99.90;;;;;;4906105;29;20297;-65
2021/04/12 03:04:21;;;;;;;7.38;6.57;;;3.20;99.90;;;;;;4930860;29;21335;-65
2021/04/12 03:07:18;;;;;;;11.60;9.05;;;3.20;99.90;;;;;;4929995;29;20212;-65
2021/04/12 03:09:55;;;;;;;10.23;8.77;;;3.20;99.90;;;;;;4930882;29;20214;-65
2021/04/12 03:12:44;;;;;;;9.65;8.38;;;3.20;99.90;;;;;;4931186;29;20209;-65
2021/04/12 03:15:55;;;;;;;11.15;9.45;;;3.10;99.90;;;;;;4929852;29;20233;-64
2021/04/12 03:18:58;;;;;;;9.35;7.60;;;3.20;99.90;;;;;;4871763;29;20741;-65
2021/04/12 03:21:53;;;;;;;11.82;9.23;;;3.20;99.90;;;;;;4931172;29;20222;-65
2021/04/12 03:24:24;;;;;;;13.57;9.23;;;3.20;99.90;;;;;;4930380;29;20210;-65
2021/04/12 03:27:14;;;;;;;10.85;9.50;;;3.20;99.90;;;;;;4930722;29;20570;-66
2021/04/12 03:29:56;;;;;;;11.15;8.60;;;3.10;99.90;;;;;;4930660;29;20210;-64
2021/04/12 03:33:01;;;;;;;12.20;9.85;;;3.10;99.90;;;;;;4931097;29;20212;-64
2021/04/12 03:36:00;;;;;;;11.02;9.50;;;3.10;99.90;;;;;;4929896;29;20216;-65
2021/04/12 03:38:35;;;;;;;11.00;8.95;;;3.10;99.90;;;;;;4915550;29;20236;-66
2021/04/12 03:41:27;;;;;;;12.93;8.68;;;3.10;99.90;;;;;;4930922;29;20220;-64
2021/04/12 03:44:14;;;;;;;9.75;7.57;;;3.10;99.90;;;;;;4929269;29;20218;-65
2021/04/12 03:46:55;;;;;;;11.25;8.98;;;3.10;99.90;;;;;;4930857;29;20216;-64
2021/04/12 03:49:35;;;;;;;12.65;9.95;;;3.10;99.90;;;;;;4931052;29;20217;-65
2021/04/12 03:52:37;;;;;;;13.77;10.57;;;3.10;99.90;;;;;;4930893;29;20268;-65
2021/04/12 03:55:28;;;;;;;11.85;9.20;;;3.10;99.90;;;;;;4929567;29;20777;-64
2021/04/12 03:58:05;;;;;;;14.45;9.40;;;3.10;99.90;;;;;;4921827;29;20293;-65
2021/04/12 04:00:46;;;;;;;12.18;10.07;;;3.10;99.90;;;;;;4930583;29;20718;-65
2021/04/12 04:03:28;;;;;;;13.43;10.77;;;3.10;99.90;;;;;;4930644;29;20738;-65
2021/04/12 04:06:23;;;;;;;11.13;9.05;;;3.00;99.90;;;;;;4928932;29;20272;-64
2021/04/12 04:09:02;;;;;;;17.13;10.48;;;3.00;99.90;;;;;;4930349;29;20591;-65
2021/04/12 04:11:50;;;;;;;10.43;8.00;;;3.10;99.90;;;;;;4930347;29;20215;-64
2021/04/12 04:14:46;;;;;;;12.70;9.65;;;3.10;99.90;;;;;;4929868;29;20242;-65
2021/04/12 04:17:40;;;;;;;14.77;9.35;;;3.10;99.90;;;;;;4930236;29;20206;-65
2021/04/12 04:20:20;;;;;;;16.52;10.18;;;3.00;99.90;;;;;;4930425;29;20222;-64
2021/04/12 04:23:05;;;;;;;11.90;9.00;;;3.10;99.90;;;;;;4930527;29;20248;-64
2021/04/12 04:26:25;;;;;;;13.00;10.23;;;3.10;99.90;;;;;;4929550;29;20202;-65
2021/04/12 04:29:19;;;;;;;12.73;8.38;;;3.00;99.90;;;;;;4871335;29;20299;-64
2021/04/12 04:32:30;;;;;;;12.05;8.90;;;3.00;99.90;;;;;;4859468;29;20227;-65
2021/04/12 04:35:23;;;;;;;9.52;8.05;;;3.00;99.90;;;;;;4929380;29;20229;-65
2021/04/12 04:38:23;;;;;;;13.45;9.55;;;3.00;99.90;;;;;;4930257;29;20260;-65
2021/04/12 04:41:08;;;;;;;13.43;9.10;;;3.00;99.90;;;;;;4930131;29;20237;-64
2021/04/12 04:44:04;;;;;;;12.00;8.65;;;3.00;99.90;;;;;;4930473;29;20232;-64
2021/04/12 04:47:19;;;;;;;11.80;9.15;;;3.00;99.90;;;;;;4908559;29;20296;-64
2021/04/12 04:50:09;;;;;;;11.88;8.07;;;3.00;99.90;;;;;;4889738;29;20267;-64
2021/04/12 04:53:04;;;;;;;11.82;8.85;;;3.00;99.90;;;;;;4889490;29;20255;-64
2021/04/12 04:55:54;;;;;;;13.23;9.20;;;3.00;99.90;;;;;;4906231;29;20218;-64
2021/04/12 04:58:31;;;;;;;14.10;8.77;;;3.00;99.90;;;;;;4914245;29;20221;-65
2021/04/12 05:01:40;;;;;;;12.38;10.65;;;3.00;99.90;;;;;;4923438;29;20206;-65
2021/04/12 05:04:32;;;;;;;12.18;10.48;;;2.90;99.90;;;;;;4880530;29;20214;-65
2021/04/12 05:07:21;;;;;;;12.23;9.50;;;2.90;99.90;;;;;;4913433;29;20211;-65
2021/04/12 05:10:20;;;;;;;13.57;9.60;;;2.90;99.90;;;;;;4914361;29;20207;-64
2021/04/12 05:13:07;;;;;;;14.77;10.15;;;2.90;99.90;;;;;;4914075;29;20561;-65
2021/04/12 05:16:02;;;;;;;12.43;9.77;;;2.80;99.90;;;;;;4913191;29;20206;-65
2021/04/12 05:21:44;;;;;;;12.73;9.85;;;2.80;99.90;;;;;;4918462;23;20253;-69
2021/04/12 05:24:41;;;;;;;13.88;9.68;;;2.90;99.90;;;;;;4900760;29;20203;-69
2021/04/12 05:27:37;;;;;;;16.20;11.55;;;2.90;99.90;;;;;;4881029;29;20215;-69
2021/04/12 05:30:39;;;;;;;12.88;10.35;;;2.90;99.90;;;;;;4887464;29;20215;-69
2021/04/12 05:33:27;;;;;;;12.82;9.90;;;3.00;99.90;;;;;;4894648;29;20211;-69
2021/04/12 05:36:35;;;;;;;12.50;10.23;;;3.00;99.90;;;;;;4887135;29;20210;-69
2021/04/12 05:39:37;;;;;;;11.90;9.80;;;3.10;99.90;;;;;;4851167;29;20212;-68
2021/04/12 05:42:20;;;;;;;12.02;9.43;;;3.00;99.90;;;;;;4851025;29;20200;-68
2021/04/12 05:45:10;;;;;;;18.52;10.38;;;3.00;99.90;;;;;;4896540;29;20668;-69
2021/04/12 05:48:07;;;;;;;10.32;7.95;;;3.00;99.90;;;;;;4899071;29;20222;-69
2021/04/12 05:50:58;;;;;;;11.45;9.15;;;2.90;99.90;;;;;;4905142;29;20199;-69
2021/04/12 05:53:47;;;;;;;11.70;9.40;;;2.80;99.90;;;;;;4906988;29;20219;-69
2021/04/12 05:56:42;;;;;;;12.07;8.57;;;2.90;99.90;;;;;;4911775;29;20202;-69
2021/04/12 05:59:25;;;;;;;13.50;9.68;;;3.00;99.90;;;;;;4866934;29;20354;-69
2021/04/12 06:02:13;;;;;;;11.35;8.85;;;3.00;99.90;;;;;;4903703;29;20207;-69
2021/04/12 06:04:50;;;;;;;9.63;8.30;;;3.00;99.90;;;;;;4901836;29;20215;-69
2021/04/12 06:07:51;;;;;;;12.63;9.65;;;3.10;99.90;;;;;;4902551;29;20210;-69
2021/04/12 06:10:50;;;;;;;11.15;9.00;;;3.00;99.90;;;;;;4896797;29;20211;-69
2021/04/12 06:14:05;;;;;;;13.43;10.40;;;3.10;99.90;;;;;;4900437;29;20636;-69
2021/04/12 06:16:56;;;;;;;13.10;9.70;;;3.10;99.90;;;;;;4869872;29;20606;-69
2021/04/12 06:19:45;;;;;;;13.13;8.85;;;3.10;99.90;;;;;;4903647;29;20246;-69
2021/04/12 06:22:40;;;;;;;11.93;9.55;;;3.10;99.90;;;;;;4904380;29;20624;-69
2021/04/12 06:25:41;;;;;;;13.05;9.43;;;3.00;99.90;;;;;;4903066;29;20211;-69
2021/04/12 06:28:41;;;;;;;13.02;10.00;;;3.00;99.90;;;;;;4907036;29;20305;-69
2021/04/12 06:31:30;;;;;;;13.50;10.07;;;3.00;99.90;;;;;;4901220;29;20254;-69
2021/04/12 06:34:34;;;;;;;14.60;10.05;;;3.00;99.90;;;;;;4902679;29;20237;-69
2021/04/12 06:37:11;;;;;;;14.70;11.32;;;3.00;99.90;;;;;;4902529;29;20209;-69
2021/04/12 06:39:49;;;;;;;17.45;10.50;;;3.10;99.90;;;;;;4904770;29;20577;-69
2021/04/12 06:43:00;;;;;;;17.00;11.90;;;3.20;99.90;;;;;;4904023;29;20229;-69
2021/04/12 06:46:05;;;;;;;16.70;12.85;;;3.30;99.90;;;;;;4839899;29;20216;-69
2021/04/12 06:49:23;;;;;;;17.98;13.70;;;3.40;99.90;;;;;;4849071;29;20243;-69
2021/04/12 06:52:22;;;;;;;16.42;12.52;;;3.50;99.90;;;;;;4904912;29;20290;-69
2021/04/12 06:55:19;;;;;;;15.40;11.65;;;3.60;99.90;;;;;;4881194;29;20235;-69
2021/04/12 06:58:25;;;;;;;20.35;13.68;;;3.80;99.90;;;;;;4894198;29;20217;-69
2021/04/12 07:01:23;;;;;;;16.90;13.18;;;3.80;99.90;;;;;;4908695;29;20217;-69
2021/04/12 07:04:37;;;;;;;18.67;13.32;;;3.90;99.90;;;;;;4906858;29;20290;-70
2021/04/12 07:07:40;;;;;;;18.35;13.35;;;4.00;99.90;;;;;;4900001;29;20221;-69
2021/04/12 07:10:13;;;;;;;17.30;12.88;;;3.90;99.90;;;;;;4899359;29;20249;-69
2021/04/12 07:12:59;;;;;;;16.45;12.48;;;3.80;99.90;;;;;;4908898;29;20211;-69
2021/04/12 07:16:05;;;;;;;17.60;13.48;;;3.80;99.90;;;;;;4906499;29;20282;-69
2021/04/12 07:19:01;;;;;;;19.65;14.27;;;3.90;99.90;;;;;;4901561;29;20211;-69
2021/04/12 07:22:03;;;;;;;17.83;13.85;;;4.00;99.90;;;;;;4898828;29;20824;-69
2021/04/12 07:24:51;;;;;;;14.30;11.18;;;4.00;99.90;;;;;;4902420;29;20241;-69
2021/04/12 07:28:05;;;;;;;13.68;11.13;;;3.90;99.90;;;;;;4908536;29;20214;-69
2021/04/12 07:31:16;;;;;;;13.57;11.13;;;3.90;99.90;;;;;;4906891;29;20389;-68
2021/04/12 07:33:59;;;;;;;14.07;10.00;;;4.00;99.90;;;;;;4906731;29;20238;-69
2021/04/12 07:36:54;;;;;;;16.50;11.18;;;4.00;99.90;;;;;;4906075;29;20294;-69
2021/04/12 07:40:02;;;;;;;15.77;11.55;;;4.20;99.90;;;;;;4903391;29;20332;-69
2021/04/12 07:42:59;;;;;;;16.10;11.80;;;4.20;99.90;;;;;;4886005;29;20214;-69
2021/04/12 07:46:01;;;;;;;15.95;12.68;;;4.20;99.90;;;;;;4900910;29;20202;-69
2021/04/12 07:49:23;;;;;;;17.20;13.82;;;4.20;99.90;;;;;;4908148;29;20206;-69
2021/04/12 07:52:43;;;;;;;19.60;14.25;;;4.20;99.90;;;;;;4906599;29;20194;-68
2021/04/12 07:55:36;;;;;;;24.38;17.98;;;4.20;99.90;;;;;;4899996;29;20783;-68
2021/04/12 07:58:37;;;;;;;21.08;14.15;;;4.20;99.90;;;;;;4901922;29;20285;-68
2021/04/12 08:01:41;;;;;;;20.70;15.55;;;4.10;99.90;;;;;;4863476;29;20230;-68
2021/04/12 08:04:57;;;;;;;17.08;13.65;;;4.10;99.90;;;;;;4899322;29;20736;-68
2021/04/12 08:08:10;;;;;;;22.15;14.65;;;4.00;99.90;;;;;;4901521;29;20206;-68
2021/04/12 08:11:13;;;;;;;18.42;14.73;;;4.10;99.90;;;;;;4905378;29;20214;-68
2021/04/12 08:14:27;;;;;;;23.00;16.13;;;4.10;99.90;;;;;;4904840;29;20268;-69
2021/04/12 08:17:27;;;;;;;20.73;13.98;;;4.00;99.90;;;;;;4904740;29;20202;-69
2021/04/12 08:20:25;;;;;;;20.92;15.05;;;4.00;99.90;;;;;;4898476;29;20293;-69
2021/04/12 08:23:28;;;;;;;22.52;15.60;;;4.10;99.90;;;;;;4901477;29;20238;-68
2021/04/12 08:26:33;;;;;;;20.00;14.95;;;4.10;99.90;;;;;;4907324;29;20579;-68
2021/04/12 08:29:22;;;;;;;20.25;15.70;;;4.10;99.90;;;;;;4885708;29;20209;-68
2021/04/12 08:32:21;;;;;;;22.25;15.05;;;4.10;99.90;;;;;;4909070;29;20276;-69
2021/04/12 08:35:25;;;;;;;21.08;15.52;;;4.20;99.90;;;;;;4905970;29;20333;-68
2021/04/12 08:38:33;;;;;;;25.85;15.73;;;4.40;99.90;;;;;;4911269;29;20232;-68
2021/04/12 08:41:45;;;;;;;18.17;14.32;;;4.60;99.90;;;;;;4900955;29;20231;-68
2021/04/12 08:44:53;;;;;;;19.60;15.52;;;4.70;99.90;;;;;;4906411;29;20301;-68
2021/04/12 08:47:53;;;;;;;19.17;15.27;;;4.60;99.90;;;;;;4911015;29;20213;-68
2021/04/12 08:50:43;;;;;;;18.30;14.68;;;4.50;99.90;;;;;;4909469;29;20210;-68
2021/04/12 08:53:36;;;;;;;18.92;15.48;;;4.60;99.90;;;;;;4905851;29;20213;-69
2021/04/12 08:56:30;;;;;;;19.23;15.10;;;4.90;99.90;;;;;;4905534;29;20203;-68
2021/04/12 08:59:41;;;;;;;21.17;15.30;;;5.30;99.90;;;;;;4907878;29;20207;-68
2021/04/12 09:02:39;;;;;;;17.27;14.77;;;5.60;99.90;;;;;;4902984;29;20206;-68
2021/04/12 09:05:32;;;;;;;20.00;14.38;;;5.70;99.90;;;;;;4906884;29;20660;-68
2021/04/12 09:08:56;;;;;;;19.52;14.52;;;5.60;99.90;;;;;;4909966;29;20213;-68
2021/04/12 09:11:51;;;;;;;21.42;16.73;;;5.60;99.90;;;;;;4903278;29;20218;-67
2021/04/12 09:14:59;;;;;;;17.33;13.73;;;5.70;99.90;;;;;;4905844;29;20836;-68
2021/04/12 09:17:49;;;;;;;22.40;14.77;;;5.80;99.90;;;;;;4902013;29;20302;-68
2021/04/12 09:20:27;;;;;;;16.13;13.98;;;5.90;99.90;;;;;;4902387;29;20222;-68
2021/04/12 09:23:40;;;;;;;16.90;14.10;;;6.10;99.90;;;;;;4909666;29;20214;-68
2021/04/12 09:26:49;;;;;;;17.15;14.88;;;6.10;99.90;;;;;;4911286;29;20206;-67
2021/04/12 09:29:43;;;;;;;16.08;13.98;;;6.00;99.90;;;;;;4892079;29;20552;-68
2021/04/12 09:32:38;;;;;;;15.88;12.88;;;6.20;99.90;;;;;;4906146;29;20213;-67
2021/04/12 09:35:16;;;;;;;14.32;12.43;;;6.40;99.90;;;;;;4903385;29;20578;-68
2021/04/12 09:38:25;;;;;;;12.98;11.57;;;6.20;99.90;;;;;;4899414;29;20245;-67
2021/04/12 09:41:21;;;;;;;13.90;11.90;;;6.10;99.90;;;;;;4909318;29;20282;-67
2021/04/12 09:44:23;;;;;;;16.35;12.90;;;6.00;99.90;;;;;;4906250;29;20206;-68
2021/04/12 09:47:39;;;;;;;14.50;12.52;;;6.00;99.90;;;;;;4910091;29;20203;-67
2021/04/12 09:50:42;;;;;;;13.20;11.80;;;6.20;99.90;;;;;;4907666;29;20738;-67
2021/04/12 09:53:48;;;;;;;14.50;11.85;;;6.40;99.90;;;;;;4907884;29;20612;-68
2021/04/12 09:56:49;;;;;;;15.95;12.65;;;6.50;99.90;;;;;;4904741;29;20209;-67
2021/04/12 09:59:39;;;;;;;15.82;11.95;;;6.60;99.90;;;;;;4905164;29;20210;-68
2021/04/12 10:02:54;;;;;;;12.55;10.38;;;6.30;99.90;;;;;;4903696;29;20237;-67
2021/04/12 10:06:11;;;;;;;13.02;11.02;;;6.10;99.90;;;;;;4903347;29;20214;-68
2021/04/12 10:08:44;;;;;;;11.43;9.90;;;5.90;99.90;;;;;;4904486;29;20206;-68
2021/04/12 10:11:15;;;;;;;12.93;10.80;;;5.90;99.90;;;;;;4910764;29;20332;-68
2021/04/12 10:13:49;;;;;;;12.45;10.50;;;5.90;99.90;;;;;;4904328;29;20266;-68
2021/04/12 10:16:20;;;;;;;13.05;9.93;;;6.20;99.90;;;;;;4908984;29;20206;-67
2021/04/12 10:19:06;;;;;;;11.88;9.82;;;6.30;99.90;;;;;;4909393;29;20206;-67
2021/04/12 10:21:44;;;;;;;12.18;10.63;;;6.40;99.90;;;;;;4908774;29;20326;-67
2021/04/12 10:24:18;;;;;;;10.57;9.50;;;6.40;99.90;;;;;;4909453;29;20244;-67
2021/04/12 10:26:47;;;;;;;10.30;9.30;;;6.50;99.90;;;;;;4908259;29;20297;-67
2021/04/12 10:29:17;;;;;;;9.35;8.45;;;6.60;99.90;;;;;;4909975;29;20264;-68
2021/04/12 10:31:53;;;;;;;12.07;9.75;;;6.60;99.90;;;;;;4907764;29;20210;-67
2021/04/12 10:34:25;;;;;;;11.77;9.32;;;6.70;99.90;;;;;;4902588;29;20598;-67
2021/04/12 10:37:01;;;;;;;9.90;8.50;;;6.80;99.90;;;;;;4902836;29;20198;-67
2021/04/12 10:39:35;;;;;;;10.93;8.65;;;7.00;99.90;;;;;;4908313;29;20213;-67
2021/04/12 10:42:11;;;;;;;9.30;8.40;;;7.20;98.60;;;;;;4904408;29;20613;-66
2021/04/12 10:44:44;;;;;;;9.45;8.55;;;7.50;99.30;;;;;;4903934;29;20197;-67
2021/04/12 10:47:22;;;;;;;9.75;8.52;;;7.70;98.70;;;;;;4902413;29;20203;-67
2021/04/12 10:50:05;;;;;;;7.78;7.05;;;7.70;97.70;;;;;;4904237;29;20206;-67
2021/04/12 10:52:50;;;;;;;9.05;8.18;;;7.70;97.20;;;;;;4900755;29;20207;-68
2021/04/12 10:55:20;;;;;;;7.78;7.07;;;7.60;96.20;;;;;;4905649;29;20244;-67
2021/04/12 10:58:11;;;;;;;8.73;7.93;;;7.60;96.10;;;;;;4908818;29;20210;-67
2021/04/12 11:00:47;;;;;;;7.18;6.47;;;7.80;96.40;;;;;;4909765;29;20206;-67
2021/04/12 11:03:40;;;;;;;7.13;6.45;;;7.60;96.10;;;;;;4904150;29;20210;-67
2021/04/12 11:06:28;;;;;;;6.00;5.50;;;7.70;95.00;;;;;;4908591;29;20210;-67
2021/04/12 11:09:11;;;;;;;5.80;5.28;;;7.80;94.50;;;;;;4905597;29;20306;-66
2021/04/12 11:11:49;;;;;;;5.75;5.28;;;8.30;94.50;;;;;;4907667;29;20214;-66
2021/04/12 11:14:23;;;;;;;5.53;5.03;;;8.50;92.20;;;;;;4905054;29;20321;-67
2021/04/12 11:16:52;;;;;;;5.80;5.30;;;8.60;92.00;;;;;;4902567;29;20210;-67
2021/04/12 11:19:28;;;;;;;6.00;5.53;;;8.40;90.40;;;;;;4903573;29;20211;-67
2021/04/12 11:22:20;;;;;;;6.10;5.55;;;8.60;90.60;;;;;;4899346;29;20246;-68
2021/04/12 11:24:59;;;;;;;6.65;6.05;;;8.60;90.90;;;;;;4901956;29;20214;-67
2021/04/12 11:27:59;;;;;;;6.90;6.30;;;8.50;90.80;;;;;;4907122;29;20321;-67
2021/04/12 11:30:32;;;;;;;6.43;5.65;;;8.20;90.10;;;;;;4901172;29;20211;-67
2021/04/12 11:33:22;;;;;;;6.10;5.47;;;8.30;91.00;;;;;;4907073;29;20199;-67
2021/04/12 11:36:09;;;;;;;6.50;5.90;;;8.50;90.20;;;;;;4896356;29;20239;-67
2021/04/12 11:38:38;;;;;;;5.93;5.43;;;8.10;89.10;;;;;;4901714;29;20260;-67
2021/04/12 11:41:15;;;;;;;5.47;5.18;;;8.50;90.50;;;;;;4908163;29;20258;-66
2021/04/12 11:43:46;;;;;;;5.90;5.40;;;8.80;89.80;;;;;;4900291;29;20673;-67
2021/04/12 11:46:28;;;;;;;6.43;5.82;;;9.00;90.50;;;;;;4905844;29;20210;-67
2021/04/12 11:49:03;;;;;;;4.57;4.18;;;9.20;89.80;;;;;;4906999;29;20202;-67
2021/04/12 11:51:41;;;;;;;4.07;3.67;;;9.20;86.50;;;;;;4905379;29;20292;-67
2021/04/12 11:54:10;;;;;;;4.05;3.75;;;9.40;86.50;;;;;;4898084;29;20244;-67
2021/04/12 11:56:46;;;;;;;4.53;3.63;;;9.10;83.20;;;;;;4904669;29;20265;-67
2021/04/12 11:59:31;;;;;;;4.50;4.10;;;9.10;85.10;;;;;;4906300;29;20261;-67
2021/04/12 12:02:10;;;;;;;5.55;5.05;;;8.80;83.50;;;;;;4901376;29;20639;-68
2021/04/12 12:04:42;;;;;;;8.88;5.20;;;8.50;84.80;;;;;;4900766;29;20559;-67
2021/04/12 12:07:22;;;;;;;4.63;4.20;;;8.60;86.70;;;;;;4906469;29;20202;-67
2021/04/12 12:09:51;;;;;;;5.95;5.45;;;8.40;84.60;;;;;;4902370;29;20218;-67
2021/04/12 12:12:37;;;;;;;4.03;3.72;;;8.50;87.20;;;;;;4903102;29;20285;-67
2021/04/12 12:15:12;;;;;;;4.13;3.83;;;9.00;85.10;;;;;;4902158;29;20238;-67
2021/04/12 12:17:42;;;;;;;4.55;4.25;;;9.50;84.70;;;;;;4904756;29;20549;-67
2021/04/12 12:20:16;;;;;;;4.28;3.75;;;9.80;82.70;;;;;;4905497;29;20305;-67
2021/04/12 12:22:53;;;;;;;4.00;3.70;;;10.00;77.90;;;;;;4904027;29;20214;-67
2021/04/12 12:25:34;;;;;;;4.55;4.15;;;10.10;79.10;;;;;;4903483;29;20209;-66
2021/04/12 12:28:08;;;;;;;4.18;3.85;;;10.30;77.90;;;;;;4906178;29;20293;-68
2021/04/12 12:30:46;;;;;;;4.75;4.20;;;10.30;75.40;;;;;;4910149;29;20203;-68
2021/04/12 12:33:19;;;;;;;4.35;3.95;;;10.30;72.90;;;;;;4907625;29;20213;-68
2021/04/12 12:35:59;;;;;;;4.22;3.72;;;10.50;75.00;;;;;;4902774;29;20272;-67
2021/04/12 12:38:44;;;;;;;3.97;3.67;;;10.50;76.80;;;;;;4907965;29;20206;-67
2021/04/12 12:41:16;;;;;;;3.90;3.60;;;10.30;75.50;;;;;;4903294;29;20207;-66
2021/04/12 12:43:43;;;;;;;3.65;3.40;;;9.90;76.50;;;;;;4910396;29;20214;-68
2021/04/12 12:46:12;;;;;;;4.47;4.13;;;9.50;77.60;;;;;;4910742;29;20202;-67
2021/04/12 12:48:47;;;;;;;4.28;3.90;;;9.00;78.70;;;;;;4908166;29;20253;-67
2021/04/12 12:51:16;;;;;;;4.90;4.40;;;8.70;78.10;;;;;;4904472;29;20206;-67
2021/04/12 12:53:48;;;;;;;4.07;3.78;;;8.30;80.80;;;;;;4908487;29;20218;-67
2021/04/12 12:56:22;;;;;;;3.78;3.47;;;8.40;82.50;;;;;;4906144;29;20265;-66
2021/04/12 12:58:55;;;;;;;3.88;3.58;;;8.40;77.80;;;;;;4903223;29;20776;-67
2021/04/12 13:01:27;;;;;;;5.68;3.67;;;8.40;80.40;;;;;;4909369;29;20652;-67
2021/04/12 13:03:54;;;;;;;3.40;3.20;;;8.60;81.40;;;;;;4903749;29;20653;-67
2021/04/12 13:06:31;;;;;;;3.90;3.60;;;8.70;79.90;;;;;;4897689;29;20212;-66
2021/04/12 13:09:00;;;;;;;4.13;3.83;;;8.80;78.00;;;;;;4907920;29;20804;-67
2021/04/12 13:11:41;;;;;;;4.13;3.83;;;9.00;79.40;;;;;;4905332;29;20573;-67
2021/04/12 13:14:31;;;;;;;3.65;3.35;;;9.00;79.00;;;;;;4904705;29;20732;-67
2021/04/12 13:16:59;;;;;;;3.17;2.65;;;9.30;79.20;;;;;;4904767;29;20567;-67
2021/04/12 13:19:26;;;;;;;3.03;2.83;;;9.40;77.80;;;;;;4906490;29;20222;-66
2021/04/12 13:22:00;;;;;;;4.00;3.08;;;9.60;78.80;;;;;;4910656;29;20212;-66
2021/04/12 13:24:33;;;;;;;6.15;3.65;;;9.60;76.90;;;;;;4910806;29;20793;-66
2021/04/12 13:27:04;;;;;;;3.25;2.95;;;9.50;77.10;;;;;;4909130;29;20203;-66
2021/04/12 13:29:35;;;;;;;3.30;3.10;;;9.40;76.60;;;;;;4908775;29;20206;-66
2021/04/12 13:32:11;;;;;;;3.05;2.85;;;9.50;74.50;;;;;;4903802;29;20309;-66
2021/04/12 13:34:43;;;;;;;4.90;4.00;;;9.40;71.10;;;;;;4909263;29;20234;-66
2021/04/12 13:37:15;;;;;;;4.80;4.40;;;9.40;74.10;;;;;;4904022;29;20206;-65
2021/04/12 13:39:45;;;;;;;5.40;4.90;;;9.20;73.90;;;;;;4900628;29;20210;-66
2021/04/12 13:42:23;;;;;;;5.50;5.00;;;8.80;72.90;;;;;;4905603;29;20206;-66
2021/04/12 13:44:53;;;;;;;5.40;5.00;;;8.50;76.50;;;;;;4906058;29;20221;-66
2021/04/12 13:47:26;;;;;;;5.78;5.28;;;8.40;77.00;;;;;;4908184;29;20573;-66
2021/04/12 13:49:59;;;;;;;4.72;4.43;;;8.50;74.00;;;;;;4904862;29;20210;-65
2021/04/12 13:52:30;;;;;;;5.35;4.85;;;8.60;74.10;;;;;;4901678;29;20259;-66
2021/04/12 13:55:00;;;;;;;6.20;5.60;;;8.70;73.70;;;;;;4899872;29;20282;-66
2021/04/12 13:57:33;;;;;;;6.25;5.63;;;8.70;74.70;;;;;;4903702;29;20200;-66
2021/04/12 14:00:09;;;;;;;5.80;5.40;;;8.60;76.60;;;;;;4909754;29;20214;-67
2021/04/12 14:02:39;;;;;;;5.78;5.15;;;8.90;77.40;;;;;;4903194;29;20235;-66
2021/04/12 14:05:16;;;;;;;5.15;4.78;;;9.20;75.60;;;;;;4904541;29;20301;-66
2021/04/12 14:07:45;;;;;;;6.45;4.90;;;9.70;69.50;;;;;;4900276;29;20272;-65
2021/04/12 14:10:16;;;;;;;4.70;4.30;;;9.70;67.50;;;;;;4907636;29;20635;-67
2021/04/12 14:12:54;;;;;;;4.90;4.40;;;9.70;71.50;;;;;;4907178;29;20293;-67
2021/04/12 14:15:34;;;;;;;4.00;3.70;;;9.70;66.90;;;;;;4905849;29;20646;-67
2021/04/12 14:18:04;;;;;;;3.85;3.65;;;9.50;70.30;;;;;;4907539;29;20646;-66
2021/04/12 14:20:36;;;;;;;4.30;3.65;;;9.50;69.80;;;;;;4904307;29;20664;-67
2021/04/12 14:23:12;;;;;;;3.53;3.22;;;9.20;70.00;;;;;;4907644;29;20209;-65
2021/04/12 14:25:42;;;;;;;4.10;3.33;;;9.00;73.80;;;;;;4909660;29;20304;-67
2021/04/12 14:28:14;;;;;;;4.10;3.80;;;8.80;72.40;;;;;;4907256;29;20226;-66
2021/04/12 14:30:44;;;;;;;5.70;4.55;;;8.60;75.00;;;;;;4908275;29;20205;-66
2021/04/12 14:33:15;;;;;;;4.20;3.85;;;8.40;75.70;;;;;;4910193;29;20690;-66